• Join FlightAware (Why Join?)
  • Login
  • US Flag 
04:44AM EDT


 

Airport Tracker/Info


-or-


 

Live Flight TrackerFlight Track Log ✈ UAL4234 ✈ 09-May-2013 ✈ KCLT - KIAH

Flight Track Log - Related Links

Times and Time Zones

All times are in EDT time to prevent confusion due to time zone crossing. See the UAL4234 flight status page for this flight to view local times or setup timezone preferences in your user account.

Time Position Orientation Groundspeed Altitude Reporting Facility
EDT Latitude Longitude Course Direction KTS MPH feet Rate Location/Type
12:20PM 35.1911 -80.9508 192° South 164 189 1,300  Level Atlanta Center
12:21PM 35.1433 -80.9528 182° South 190 219 3,000 1,380 Climbing Atlanta Center
12:22PM 35.0981 -80.9847 210° Southwest 257 296 3,900 1,680 Climbing Atlanta Center
12:23PM 35.0922 -81.0789 266° West 266 306 6,300 2,160 Climbing Atlanta Center
12:24PM 35.2028 -81.2440 199° South  Level FlightAware Approximate
12:24PM 35.1131 -81.1644 287° West 261 300 8,300  Level Atlanta Center
12:25PM 35.1039 -81.2782 192° South  Level FlightAware Approximate
12:25PM 35.1189 -81.2406 275° West 291 335 10,300  Level Atlanta Center
12:26PM 35.0769 -81.3258 239° Southwest 268 308 11,200 900 Climbing Atlanta Center
12:27PM 35.0458 -81.4308 250° West 306 352 12,200 1,200 Climbing Atlanta Center
12:28PM 35.0147 -81.5331 250° West 325 374 13,700 1,320 Climbing Atlanta Center
12:29PM 34.9853 -81.6278 249° West 337 388 14,900 1,200 Climbing Atlanta Center
12:30PM 34.9519 -81.7378 250° West 331 381 16,100 1,080 Climbing Atlanta Center
12:31PM 34.9142 -81.8428 246° West 336 387 17,100 900 Climbing Atlanta Center
12:32PM 34.8514 -81.9481 234° Southwest 347 399 17,900 900 Climbing Atlanta Center
12:33PM 34.7944 -82.0506 236° Southwest 359 413 18,900 900 Climbing Atlanta Center
12:34PM 34.7356 -82.1531 235° Southwest 370 426 19,800 900 Climbing Atlanta Center
12:35PM 34.6828 -82.2453 235° Southwest 375 432 20,800 900 Climbing Atlanta Center
12:36PM 34.6236 -82.3500 236° Southwest 375 432 21,700 900 Climbing Atlanta Center
12:37PM 34.5644 -82.4522 235° Southwest 380 437 22,700 900 Climbing Atlanta Center
12:38PM 34.5053 -82.5567 236° Southwest 380 437 23,600 960 Climbing Atlanta Center
12:39PM 34.4378 -82.6736 235° Southwest 380 437 24,700 1,020 Climbing Atlanta Center
12:40PM 34.3806 -82.7803 237° Southwest 380 437 25,700 900 Climbing Atlanta Center
12:41PM 34.3169 -82.8819 233° Southwest 380 437 26,600 840 Climbing Atlanta Center
12:42PM 34.2633 -82.9731 235° Southwest 380 437 27,400 900 Climbing Atlanta Center
12:43PM 34.2058 -83.0767 236° Southwest 380 437 28,400 900 Climbing Atlanta Center
12:44PM 34.1461 -83.1778 235° Southwest 380 437 29,300 840 Climbing Atlanta Center
12:45PM 34.0842 -83.2789 234° Southwest 380 437 30,100 660 Climbing Atlanta Center
12:46PM 34.0242 -83.3847 236° Southwest 380 437 30,700 420 Climbing Atlanta Center
12:47PM 33.9600 -83.4903 234° Southwest 390 449 31,000 120 Climbing Atlanta Center
12:48PM 33.8853 -83.6183 235° Southwest 411 473 31,000 360 Level Atlanta Center
12:49PM 33.8147 -83.7364 234° Southwest 430 495 31,800 840 Climbing Atlanta Center
12:50PM 33.7461 -83.8489 234° Southwest 430 495 32,700 900 Climbing Atlanta Center
12:51PM 33.6753 -83.9664 234° Southwest 430 495 33,700 600 Climbing Atlanta Center
12:52PM 33.6064 -84.0811 234° Southwest 430 495 34,000 120 Climbing Atlanta Center
12:53PM 33.5375 -84.1958 234° Southwest 430 495 34,000 60 Level Atlanta Center
12:54PM 33.4706 -84.3053 234° Southwest 441 507 34,200 600 Climbing Atlanta Center
12:55PM 33.4033 -84.4194 235° Southwest 436 502 35,200 900 Climbing Atlanta Center
12:56PM 33.3342 -84.5336 234° Southwest 431 496 36,000 360 Climbing Atlanta Center
12:57PM 33.2667 -84.6450 234° Southwest 426 490 36,000  Level Atlanta Center
12:58PM 33.1972 -84.7611 234° Southwest 431 496 36,000  Level Atlanta Center
12:59PM 33.1192 -84.8869 233° Southwest 431 496 36,000  Level Atlanta Center
01:00PM 33.0494 -85.0028 234° Southwest 431 496 36,000  Level Atlanta Center
01:01PM 32.9797 -85.1161 234° Southwest 431 496 36,000  Level Atlanta Center
01:02PM 32.9119 -85.2192 232° Southwest 413 475 36,000  Level Atlanta Center
01:03PM 32.8461 -85.3294 235° Southwest 413 475 36,000  Level Atlanta Center
01:04PM 32.7781 -85.4372 233° Southwest 413 475 36,000  Level Atlanta Center
01:05PM 32.7122 -85.5447 234° Southwest 407 468 36,000  Level Atlanta Center
01:06PM 32.6397 -85.6569 233° Southwest 407 468 36,000  Level Atlanta Center
01:07PM 32.5714 -85.7692 234° Southwest 412 474 36,000  Level Atlanta Center
01:08PM 32.4989 -85.8811 232° Southwest 424 488 36,000  Level Atlanta Center
01:09PM 32.4283 -85.9953 234° Southwest 435 501 36,000  Level Atlanta Center
01:10PM 32.3556 -86.1067 232° Southwest 430 495 36,000  Level Atlanta Center
01:11PM 32.2889 -86.2181 235° Southwest 430 495 36,000  Level Atlanta Center
01:12PM 32.2283 -86.3297 237° Southwest 425 489 36,000  Level Atlanta Center
01:13PM 32.1492 -86.4281 226° Southwest 422 486 36,000  Level Atlanta Center
01:14PM 32.0803 -86.5342 233° Southwest 417 480 36,000  Level Atlanta Center
01:15PM 32.0033 -86.6325 227° Southwest 417 480 36,000  Level Atlanta Center
01:16PM 31.9344 -86.7233 228° Southwest 417 480 36,000  Level Atlanta Center
01:17PM 31.8594 -86.8214 228° Southwest 417 480 36,000  Level Atlanta Center
01:18PM 31.7861 -86.9219 229° Southwest 417 480 36,000  Level Atlanta Center
01:19PM 31.6794 -87.0694 230° Southwest 405 466 36,000  Level Houston Center
01:20PM 31.6064 -87.1686 229° Southwest 403 464 36,000  Level Houston Center
01:21PM 31.5194 -87.2906 230° Southwest 405 466 36,000  Level Houston Center
01:22PM 31.4458 -87.3889 229° Southwest 403 464 36,000  Level Houston Center
01:23PM 31.3722 -87.4894 229° Southwest 405 466 36,000  Level Houston Center
01:24PM 31.3000 -87.5889 230° Southwest 403 464 36,000  Level Houston Center
01:25PM 31.2264 -87.6881 229° Southwest 402 463 36,000 -60 Level Houston Center
01:26PM 31.1508 -87.7911 229° Southwest 403 464 35,900  Descending Houston Center
01:27PM 31.0625 -87.9094 229° Southwest 403 464 36,000  Climbing Houston Center
01:29PM 30.9883 -88.0083 229° Southwest 404 465 35,900  Descending Houston Center
01:30PM 30.9131 -88.1064 228° Southwest 406 467 36,000  Climbing Houston Center
01:31PM 30.8514 -88.2117 236° Southwest 396 456 35,900  Descending Houston Center
01:32PM 30.8167 -88.3281 251° West 382 440 36,000  Climbing Houston Center
01:33PM 30.7814 -88.4431 250° West 379 436 36,000  Level Houston Center
01:34PM 30.7381 -88.5822 250° West 381 438 36,000  Level Houston Center
01:35PM 30.7064 -88.6800 249° West 379 436 36,000  Level Houston Center
01:36PM 30.6631 -88.8197 250° West 382 440 36,000  Level Houston Center
01:37PM 30.6267 -88.9356 250° West 382 440 36,000  Level Houston Center
01:38PM 30.5933 -89.0439 250° West 380 437 36,000  Level Houston Center
01:39PM 30.5578 -89.1586 250° West 380 437 36,000  Level Houston Center
01:40PM 30.5131 -89.2972 249° West 383 441 36,000  Level Houston Center
01:41PM 30.4772 -89.4136 250° West 383 441 36,000  Level Houston Center
01:42PM 30.4397 -89.5275 249° West 381 438 36,000  Level Houston Center
01:43PM 30.4039 -89.6436 250° West 384 442 36,000  Level Houston Center
01:44PM 30.3667 -89.7575 249° West 382 440 36,000  Level Houston Center
01:45PM 30.3222 -89.8814 247° West 386 444 36,000  Level Houston Center
01:46PM 30.2853 -90.0031 251° West 387 445 36,000  Level Houston Center
01:47PM 30.2481 -90.1175 249° West 385 443 36,000  Level Houston Center
01:48PM 30.2028 -90.2547 249° West 382 440 36,000  Level Houston Center
01:49PM 30.1658 -90.3692 250° West 381 438 36,000  Level Houston Center
01:50PM 30.1272 -90.4833 249° West 381 438 36,000  Level Houston Center
01:51PM 30.0892 -90.5989 249° West 385 443 36,000  Level Houston Center
01:52PM 30.0514 -90.7119 249° West 380 437 36,000  Level Houston Center
01:53PM 30.0139 -90.8267 249° West 383 441 36,000  Level Houston Center
01:54PM 29.9672 -90.9639 249° West 385 443 36,000  Level Houston Center
01:55PM 29.9300 -91.0775 249° West 381 438 36,000  Level Houston Center
01:56PM 29.8914 -91.1906 249° West 380 437 36,000  Level Houston Center
01:58PM 29.8522 -91.3044 248° West 382 440 36,000 -60 Level Houston Center
01:59PM 29.8144 -91.4186 249° West 383 441 35,900  Descending Houston Center
02:00PM 29.7683 -91.5547 249° West 381 438 36,000  Climbing Houston Center
02:01PM 29.7294 -91.6686 249° West 383 441 36,000  Level Houston Center
02:02PM 29.6942 -91.7692 248° West 380 437 36,000  Level Houston Center
02:03PM 29.6475 -91.9047 248° West 381 438 36,000  Level Houston Center
02:04PM 29.6100 -92.0167 249° West 376 433 36,000  Level Houston Center
02:05PM 29.5700 -92.1292 248° West 380 437 36,000  Level Houston Center
02:06PM 29.5319 -92.2408 249° West 375 432 36,000  Level Houston Center
02:07PM 29.4925 -92.3517 248° West 375 432 36,000  Level Houston Center
02:08PM 29.4578 -92.4622 250° West 369 425 36,000  Level Houston Center
02:09PM 29.4631 -92.6008 273° West 362 417 36,000  Level Houston Center
02:10PM 29.4686 -92.7131 273° West 356 410 36,000  Level Houston Center
02:11PM 29.4733 -92.8258 273° West 355 409 36,000 -600 Level Houston Center
02:12PM 29.4783 -92.9392 273° West 356 410 34,800 -1,560 Descending Houston Center
02:13PM 29.4833 -93.0569 273° West 367 422 32,800 -1,920 Descending Houston Center
02:14PM 29.4889 -93.1786 273° West 381 438 30,800 -2,160 Descending Houston Center
02:15PM 29.4956 -93.3322 273° West 398 458 28,300 -2,280 Descending Houston Center
02:16PM 29.5003 -93.4636 272° West 409 471 26,100 -2,160 Descending Houston Center
02:17PM 29.5058 -93.5978 273° West 418 481 23,900 -2,220 Descending Houston Center
02:18PM 29.5108 -93.7269 273° West 407 468 21,600 -2,280 Descending Houston Center
02:19PM 29.5153 -93.8453 273° West 377 434 19,200 -2,400 Descending Houston Center
02:20PM 29.5194 -93.9650 272° West 374 430 16,700 -2,580 Descending Houston Center
02:21PM 29.5247 -94.1036 273° West 382 440 14,100 -1,800 Descending Houston Center
02:22PM 29.5283 -94.2178 272° West 368 423 13,000 -540 Descending Houston Center
02:23PM 29.5322 -94.3233 272° West 338 389 13,000 -360 Level Houston Center
02:24PM 29.5700 -94.4294 292° West 332 382 12,400 -900 Descending Houston Center
02:25PM 29.6111 -94.5275 296° West 328 377 11,300 -1,020 Descending Houston Center
02:27PM 29.6533 -94.6247 297° West 322 371 10,300 -1,140 Descending Houston Center
02:27PM 29.6875 -94.7056 296° West 281 323 9,000 -1,500 Descending Houston Center
02:28PM 29.7228 -94.7900 296° West 289 333 7,400 -1,440 Descending Houston Center
02:29PM 29.7556 -94.8678 296° West 272 313 6,100 -720 Descending Houston Center
02:30PM 29.7906 -94.9500 296° West 271 312 6,000 -60 Descending Houston Center
02:32PM 29.8233 -95.0303 295° West 275 316 6,000  Level Houston Center
02:33PM 29.8558 -95.1081 296° West 273 314 6,000  Level Houston Center
02:34PM 29.8906 -95.1883 297° West 275 316 6,000  Level Houston Center
02:35PM 29.8989 -95.2764 276° West 267 307 6,000  Level Houston Center
02:36PM 29.9003 -95.3606 271° West 260 299 6,100  Climbing Houston Center
02:36PM 29.9003 -95.3769 270° West 260 299 6,000 -120 Descending Houston Center
02:37PM 29.8994 -95.4450 269° West 262 302 6,000  Level Houston Center
02:37PM 29.9006 -95.4606 275° West 261 300 6,000  Level Houston Center
02:38PM 29.8997 -95.5172 269° West 202 232 6,000  Level Houston Center
02:38PM 29.9003 -95.5303 273° West 229 264 6,000  Level Houston Center
02:39PM 29.9000 -95.5897 270° West 210 242 6,000  Level Houston Center
02:39PM 29.9008 -95.5967 278° West 209 241 6,000  Level Houston Center
02:40PM 29.8997 -95.6569 269° West 200 230 6,000 -120 Level Houston Center
02:40PM 29.9019 -95.6728 279° West 198 228 5,900 -540 Descending Houston Center
02:41PM 29.9289 -95.7019 317° Northwest 193 222 5,500 -600 Descending Houston Center
02:41PM 29.9422 -95.7114 328° Northwest 194 223 5,300 -600 Descending Houston Center
02:42PM 29.9786 -95.6936 23° Northeast 200 230 4,900 -600 Descending Houston Center
02:42PM 29.9867 -95.6825 50° Northeast 197 227 4,700 -720 Descending Houston Center
02:43PM 29.9925 -95.6389 81° East 170 196 4,200 -600 Descending Houston Center
02:43PM 29.9931 -95.6267 87° East 180 207 4,100 -300 Descending Houston Center
02:44PM 29.9919 -95.5836 92° East 170 196 3,900 -300 Descending Houston Center
02:44PM 29.9936 -95.5719 81° East 171 197 3,800 -900 Descending Houston Center
02:45PM 29.9931 -95.5256 91° East 176 203 3,000 -1,020 Descending Houston Center
02:45PM 29.9931 -95.5161 90° East 173 199 2,800 -1,020 Descending Houston Center
02:46PM 29.9925 -95.4750 91° East 154 177 2,000 -1,020 Descending Houston Center
02:46PM 29.9933 -95.4553 87° East 166 191 1,800 -540 Descending Houston Center